Meteo Giornale » Osservazioni meteo Stati Uniti (USA) » Meridian Key Fld
ore: 22:58 - Osservazioni Meteo Meridian Key Fld
Lat. 32° 20' N Lon. 88° 44' W Alt. 90 metri s.l.m.
25 °C
Sereno
Temp. 24 Ore
22 °C
36 °C
Nord
0 Km/h
Dew point 23 °C
Umidità 88 %
Visibilità 10 Km
Il sole sorge alle ore 06:30
Il sole tramonta alle ore 19:19
| Data e Ora | Cielo e Fenomeni | T °C | DP °C | Um. % | Pres. hPa | Vis. km | Vento km/h | |
|---|---|---|---|---|---|---|---|---|
| Ieri h: 22:58 | Sereno | 25 | 23 | 88 | 1017 | 10 | N 0 | |
| Ieri h: 21:58 | Sereno | 26 | 23 | 83 | 1017 | 10 | N 0 | |
| Ieri h: 20:58 | Sereno | 26 | 23 | 83 | 1017 | 10 | N 0 | |
| Ieri h: 19:58 | Sereno | 28 | 23 | 74 | 1017 | 10 | N 5.5 | |
| Ieri h: 18:58 | Sereno | 33 | 22 | 52 | 1016 | 10 | E/SE 9.3 | |
| Ieri h: 17:58 | Sereno | 34 | 22 | 49 | 1016 | 10 | E/SE 11.1 | |
| Ieri h: 16:58 | Sereno | 34 | 22 | 49 | 1016 | 10 | E/SE 16.7 | |
| Ieri h: 15:58 | Poco Nuvoloso | 36 | 22 | 44 | 1017 | 10 | E 18.5 | |
| Ieri h: 14:58 | Poco Nuvoloso | 34 | 21 | 46 | 1017 | 10 | E/SE 9.3 | |
| Ieri h: 13:58 | Sereno | 34 | 21 | 46 | 1018 | 10 | N 11.1 | |
| Ieri h: 12:58 | Molto Nuvoloso | 34 | 22 | 49 | 1018 | 10 | E/NE 14.8 | |
| Ieri h: 11:58 | Poco Nuvoloso | 33 | 22 | 52 | 1019 | 10 | E/NE 11.1 | |
| Ieri h: 10:58 | Sereno | 32 | 22 | 55 | 1019 | 10 | E/NE 11.1 | |
| Ieri h: 09:58 | Sereno | 31 | 23 | 62 | 1019 | 10 | NE 13 | |
| Ieri h: 08:58 | Sereno | 29 | 23 | 70 | 1020 | 10 | E/NE 11.1 | |
| Ieri h: 07:58 | Sereno | 26 | 23 | 83 | 1019 | 10 | NE 7.4 | |
| Ieri h: 06:58 | Sereno | 22 | 22 | 100 | 1018 | 10 | N 0 | |
| Ieri h: 05:58 | Sereno | 22 | 21 | 94 | 1018 | 10 | N 0 | |
| Ieri h: 04:58 | Sereno | 22 | 22 | 100 | 1017 | 10 | N 0 | |
| Ieri h: 03:58 | Sereno | 23 | 22 | 94 | 1017 | 10 | N 0 | |
| Ieri h: 02:58 | Sereno | 23 | 22 | 94 | 1017 | 10 | N 0 | |
| Ieri h: 01:58 | Sereno | 23 | 22 | 94 | 1017 | 10 | N 0 | |
| Ieri h: 00:58 | Sereno | 24 | 23 | 94 | 1018 | 10 | N 0 | |



